sensor_id;sensor_type;location;lat;lon;timestamp;pressure;altitude;pressure_sealevel;temperature;humidity
22753;BME280;11543;43.144;24.684;2023-07-29T00:00:42;98567.88;;;20.82;50.63
22753;BME280;11543;43.144;24.684;2023-07-29T00:03:08;98563.75;;;20.73;50.77
22753;BME280;11543;43.144;24.684;2023-07-29T00:05:34;98530.81;;;20.56;50.69
22753;BME280;11543;43.144;24.684;2023-07-29T00:07:59;98536.94;;;20.70;50.74
22753;BME280;11543;43.144;24.684;2023-07-29T00:10:25;98553.16;;;20.83;50.43
22753;BME280;11543;43.144;24.684;2023-07-29T00:12:51;98544.81;;;20.78;50.78
22753;BME280;11543;43.144;24.684;2023-07-29T00:15:16;98544.13;;;20.64;50.60
22753;BME280;11543;43.144;24.684;2023-07-29T00:17:42;98552.16;;;20.59;50.84
22753;BME280;11543;43.144;24.684;2023-07-29T00:20:07;98556.47;;;20.67;50.87
22753;BME280;11543;43.144;24.684;2023-07-29T00:22:33;98540.72;;;20.51;50.82
22753;BME280;11543;43.144;24.684;2023-07-29T00:24:59;98537.94;;;20.57;50.95
22753;BME280;11543;43.144;24.684;2023-07-29T00:27:25;98541.03;;;20.61;50.86
22753;BME280;11543;43.144;24.684;2023-07-29T00:29:51;98530.44;;;20.53;50.87
22753;BME280;11543;43.144;24.684;2023-07-29T00:32:16;98541.47;;;20.40;51.41
22753;BME280;11543;43.144;24.684;2023-07-29T00:34:42;98543.09;;;20.22;51.64
22753;BME280;11543;43.144;24.684;2023-07-29T00:37:07;98543.00;;;20.11;52.24
22753;BME280;11543;43.144;24.684;2023-07-29T00:39:33;98536.25;;;20.13;52.34
22753;BME280;11543;43.144;24.684;2023-07-29T00:41:58;98532.19;;;20.22;52.01
22753;BME280;11543;43.144;24.684;2023-07-29T00:44:24;98572.47;;;20.39;52.07
22753;BME280;11543;43.144;24.684;2023-07-29T00:46:52;98558.81;;;20.20;52.43
22753;BME280;11543;43.144;24.684;2023-07-29T00:49:18;98545.94;;;20.09;52.44
22753;BME280;11543;43.144;24.684;2023-07-29T00:51:44;98560.81;;;20.31;52.28
22753;BME280;11543;43.144;24.684;2023-07-29T00:54:10;98571.00;;;20.43;52.41
22753;BME280;11543;43.144;24.684;2023-07-29T00:56:36;98554.47;;;20.38;52.03
22753;BME280;11543;43.144;24.684;2023-07-29T00:59:02;98562.69;;;20.56;51.69
22753;BME280;11543;43.144;24.684;2023-07-29T01:01:28;98555.25;;;20.63;51.63
22753;BME280;11543;43.144;24.684;2023-07-29T01:03:54;98549.59;;;20.64;51.50
22753;BME280;11543;43.144;24.684;2023-07-29T01:06:47;98563.28;;;20.76;50.87
22753;BME280;11543;43.144;24.684;2023-07-29T01:10:00;98557.63;;;20.78;50.85
22753;BME280;11543;43.144;24.684;2023-07-29T01:12:54;98553.16;;;20.83;50.60
22753;BME280;11543;43.144;24.684;2023-07-29T01:17:58;98549.97;;;20.68;51.19
22753;BME280;11543;43.144;24.684;2023-07-29T01:20:25;98553.75;;;20.67;51.29
22753;BME280;11543;43.144;24.684;2023-07-29T01:22:51;98545.41;;;20.44;51.68
22753;BME280;11543;43.144;24.684;2023-07-29T01:25:17;98563.53;;;20.31;52.38
22753;BME280;11543;43.144;24.684;2023-07-29T01:27:45;98560.94;;;20.18;53.11
22753;BME280;11543;43.144;24.684;2023-07-29T01:30:11;98548.38;;;20.17;53.02
22753;BME280;11543;43.144;24.684;2023-07-29T01:32:47;98556.31;;;20.19;53.02
22753;BME280;11543;43.144;24.684;2023-07-29T01:35:28;98558.34;;;20.05;52.97
22753;BME280;11543;43.144;24.684;2023-07-29T01:38:05;98549.97;;;19.75;53.69
22753;BME280;11543;43.144;24.684;2023-07-29T01:40:31;98563.34;;;19.77;54.20
22753;BME280;11543;43.144;24.684;2023-07-29T01:42:57;98541.13;;;19.80;54.08
22753;BME280;11543;43.144;24.684;2023-07-29T01:45:24;98546.91;;;19.90;53.40
22753;BME280;11543;43.144;24.684;2023-07-29T01:47:51;98564.09;;;20.15;53.41
22753;BME280;11543;43.144;24.684;2023-07-29T01:50:16;98561.16;;;20.17;53.40
22753;BME280;11543;43.144;24.684;2023-07-29T01:52:42;98552.38;;;20.15;53.27
22753;BME280;11543;43.144;24.684;2023-07-29T01:55:08;98558.59;;;19.97;53.28
22753;BME280;11543;43.144;24.684;2023-07-29T01:57:33;98574.63;;;19.80;53.46
22753;BME280;11543;43.144;24.684;2023-07-29T01:59:59;98574.50;;;19.68;54.18
22753;BME280;11543;43.144;24.684;2023-07-29T02:02:24;98560.56;;;19.58;54.71
22753;BME280;11543;43.144;24.684;2023-07-29T02:04:50;98554.06;;;19.59;54.47
22753;BME280;11543;43.144;24.684;2023-07-29T02:07:18;98575.72;;;19.72;54.66
22753;BME280;11543;43.144;24.684;2023-07-29T02:09:44;98570.47;;;19.78;54.34
22753;BME280;11543;43.144;24.684;2023-07-29T02:12:10;98556.72;;;19.66;54.03
22753;BME280;11543;43.144;24.684;2023-07-29T02:14:35;98579.34;;;19.66;54.50
22753;BME280;11543;43.144;24.684;2023-07-29T02:17:01;98571.06;;;19.48;54.65
22753;BME280;11543;43.144;24.684;2023-07-29T02:19:26;98566.56;;;19.29;54.90
22753;BME280;11543;43.144;24.684;2023-07-29T02:21:52;98543.25;;;19.08;55.20
22753;BME280;11543;43.144;24.684;2023-07-29T02:24:17;98577.13;;;19.05;55.73
22753;BME280;11543;43.144;24.684;2023-07-29T02:26:43;98550.22;;;18.84;56.10
22753;BME280;11543;43.144;24.684;2023-07-29T02:29:08;98565.94;;;18.75;56.41
22753;BME280;11543;43.144;24.684;2023-07-29T02:31:33;98567.19;;;18.80;56.70
22753;BME280;11543;43.144;24.684;2023-07-29T02:34:00;98563.88;;;18.71;57.04
22753;BME280;11543;43.144;24.684;2023-07-29T02:36:25;98568.81;;;18.87;57.22
22753;BME280;11543;43.144;24.684;2023-07-29T02:38:51;98567.53;;;18.96;57.28
22753;BME280;11543;43.144;24.684;2023-07-29T02:41:16;98554.13;;;19.01;56.45
22753;BME280;11543;43.144;24.684;2023-07-29T02:43:48;98594.19;;;19.26;56.04
22753;BME280;11543;43.144;24.684;2023-07-29T02:46:14;98596.22;;;19.37;55.83
22753;BME280;11543;43.144;24.684;2023-07-29T02:48:40;98580.34;;;19.34;55.66
22753;BME280;11543;43.144;24.684;2023-07-29T02:51:05;98591.97;;;19.54;55.19
22753;BME280;11543;43.144;24.684;2023-07-29T02:53:31;98574.81;;;19.47;55.06
22753;BME280;11543;43.144;24.684;2023-07-29T02:55:56;98567.91;;;19.51;54.83
22753;BME280;11543;43.144;24.684;2023-07-29T02:58:22;98574.78;;;19.60;54.83
22753;BME280;11543;43.144;24.684;2023-07-29T03:00:47;98582.06;;;19.66;54.53
22753;BME280;11543;43.144;24.684;2023-07-29T03:03:14;98581.34;;;19.78;54.47
22753;BME280;11543;43.144;24.684;2023-07-29T03:05:39;98576.56;;;19.73;54.44
22753;BME280;11543;43.144;24.684;2023-07-29T03:08:05;98562.66;;;19.56;54.62
22753;BME280;11543;43.144;24.684;2023-07-29T03:10:31;98589.34;;;19.72;54.74
22753;BME280;11543;43.144;24.684;2023-07-29T03:12:56;98587.69;;;19.71;54.57
22753;BME280;11543;43.144;24.684;2023-07-29T03:15:25;98591.44;;;19.70;54.29
22753;BME280;11543;43.144;24.684;2023-07-29T03:17:51;98586.00;;;19.70;54.67
22753;BME280;11543;43.144;24.684;2023-07-29T03:20:17;98598.06;;;19.81;54.29
22753;BME280;11543;43.144;24.684;2023-07-29T03:22:44;98578.09;;;19.62;54.42
22753;BME280;11543;43.144;24.684;2023-07-29T03:25:09;98599.44;;;19.65;55.10
22753;BME280;11543;43.144;24.684;2023-07-29T03:27:35;98607.78;;;19.70;54.97
22753;BME280;11543;43.144;24.684;2023-07-29T03:30:03;98605.72;;;19.66;54.93
22753;BME280;11543;43.144;24.684;2023-07-29T03:32:28;98598.22;;;19.61;55.38
22753;BME280;11543;43.144;24.684;2023-07-29T03:34:54;98591.97;;;19.54;55.22
22753;BME280;11543;43.144;24.684;2023-07-29T03:37:20;98596.38;;;19.55;55.38
22753;BME280;11543;43.144;24.684;2023-07-29T03:39:46;98580.47;;;19.52;55.17
22753;BME280;11543;43.144;24.684;2023-07-29T03:42:12;98594.00;;;19.65;55.04
22753;BME280;11543;43.144;24.684;2023-07-29T03:44:38;98597.34;;;19.67;54.97
22753;BME280;11543;43.144;24.684;2023-07-29T03:47:05;98616.81;;;19.64;55.15
22753;BME280;11543;43.144;24.684;2023-07-29T03:49:31;98609.22;;;19.35;55.74
22753;BME280;11543;43.144;24.684;2023-07-29T03:51:56;98605.94;;;19.20;56.34
22753;BME280;11543;43.144;24.684;2023-07-29T03:54:22;98627.63;;;19.33;56.37
22753;BME280;11543;43.144;24.684;2023-07-29T03:56:48;98612.63;;;19.24;56.47
22753;BME280;11543;43.144;24.684;2023-07-29T03:59:13;98622.03;;;19.28;56.60
22753;BME280;11543;43.144;24.684;2023-07-29T04:01:39;98596.34;;;19.17;56.65
22753;BME280;11543;43.144;24.684;2023-07-29T04:04:04;98590.66;;;19.25;56.69
22753;BME280;11543;43.144;24.684;2023-07-29T04:06:30;98625.91;;;19.45;56.39
22753;BME280;11543;43.144;24.684;2023-07-29T04:08:56;98616.47;;;19.48;56.13
22753;BME280;11543;43.144;24.684;2023-07-29T04:11:22;98619.59;;;19.51;56.28
22753;BME280;11543;43.144;24.684;2023-07-29T04:13:47;98621.22;;;19.65;56.14
22753;BME280;11543;43.144;24.684;2023-07-29T04:16:13;98624.94;;;19.71;56.23
22753;BME280;11543;43.144;24.684;2023-07-29T04:18:38;98625.31;;;19.81;56.48
22753;BME280;11543;43.144;24.684;2023-07-29T04:21:04;98621.78;;;19.74;56.26
22753;BME280;11543;43.144;24.684;2023-07-29T04:23:29;98619.91;;;19.75;56.23
22753;BME280;11543;43.144;24.684;2023-07-29T04:25:55;98613.56;;;19.81;56.39
22753;BME280;11543;43.144;24.684;2023-07-29T04:28:20;98617.91;;;19.95;56.27
22753;BME280;11543;43.144;24.684;2023-07-29T04:30:46;98616.41;;;19.99;56.45
22753;BME280;11543;43.144;24.684;2023-07-29T04:33:11;98622.63;;;20.06;56.02
22753;BME280;11543;43.144;24.684;2023-07-29T04:35:37;98627.53;;;20.22;56.08
22753;BME280;11543;43.144;24.684;2023-07-29T04:38:02;98619.97;;;20.24;56.38
22753;BME280;11543;43.144;24.684;2023-07-29T04:40:28;98622.84;;;20.29;56.64
22753;BME280;11543;43.144;24.684;2023-07-29T04:42:53;98629.09;;;20.36;56.28
22753;BME280;11543;43.144;24.684;2023-07-29T04:45:19;98628.44;;;20.41;56.05
22753;BME280;11543;43.144;24.684;2023-07-29T04:47:44;98631.88;;;20.55;55.70
22753;BME280;11543;43.144;24.684;2023-07-29T04:50:10;98635.97;;;20.64;55.11
22753;BME280;11543;43.144;24.684;2023-07-29T04:52:35;98635.41;;;20.80;54.96
22753;BME280;11543;43.144;24.684;2023-07-29T04:55:01;98627.03;;;20.82;54.61
22753;BME280;11543;43.144;24.684;2023-07-29T04:57:26;98617.72;;;20.89;54.13
22753;BME280;11543;43.144;24.684;2023-07-29T04:59:52;98612.19;;;20.96;54.17
22753;BME280;11543;43.144;24.684;2023-07-29T05:02:17;98626.63;;;21.15;53.97
22753;BME280;11543;43.144;24.684;2023-07-29T05:04:43;98621.06;;;21.28;53.82
22753;BME280;11543;43.144;24.684;2023-07-29T05:07:08;98628.47;;;21.39;53.50
22753;BME280;11543;43.144;24.684;2023-07-29T05:09:34;98626.53;;;21.58;53.23
22753;BME280;11543;43.144;24.684;2023-07-29T05:12:00;98615.97;;;21.61;52.99
22753;BME280;11543;43.144;24.684;2023-07-29T05:14:25;98624.97;;;21.80;52.69
22753;BME280;11543;43.144;24.684;2023-07-29T05:16:51;98623.56;;;21.89;52.33
22753;BME280;11543;43.144;24.684;2023-07-29T05:19:16;98626.34;;;22.01;51.92
22753;BME280;11543;43.144;24.684;2023-07-29T05:21:42;98626.16;;;22.14;51.60
22753;BME280;11543;43.144;24.684;2023-07-29T05:24:07;98623.91;;;22.23;51.40
22753;BME280;11543;43.144;24.684;2023-07-29T05:26:33;98608.00;;;22.32;51.27
22753;BME280;11543;43.144;24.684;2023-07-29T05:28:59;98616.69;;;22.52;51.28
22753;BME280;11543;43.144;24.684;2023-07-29T05:31:25;98613.16;;;22.63;51.48
22753;BME280;11543;43.144;24.684;2023-07-29T05:33:51;98602.44;;;22.73;51.17
22753;BME280;11543;43.144;24.684;2023-07-29T05:36:16;98621.59;;;22.97;50.58
22753;BME280;11543;43.144;24.684;2023-07-29T05:38:42;98616.91;;;23.09;50.47
22753;BME280;11543;43.144;24.684;2023-07-29T05:41:07;98621.53;;;23.20;50.40
22753;BME280;11543;43.144;24.684;2023-07-29T05:43:33;98617.19;;;23.36;49.98
22753;BME280;11543;43.144;24.684;2023-07-29T05:45:58;98624.91;;;23.50;49.83
22753;BME280;11543;43.144;24.684;2023-07-29T05:48:24;98618.00;;;23.60;50.03
22753;BME280;11543;43.144;24.684;2023-07-29T05:50:49;98624.84;;;23.74;49.99
22753;BME280;11543;43.144;24.684;2023-07-29T05:53:15;98636.09;;;23.89;50.08
22753;BME280;11543;43.144;24.684;2023-07-29T05:55:41;98616.41;;;23.92;49.74
22753;BME280;11543;43.144;24.684;2023-07-29T05:58:06;98607.22;;;23.98;49.58
22753;BME280;11543;43.144;24.684;2023-07-29T06:00:32;98609.63;;;24.11;49.23
22753;BME280;11543;43.144;24.684;2023-07-29T06:02:57;98623.16;;;24.30;49.14
22753;BME280;11543;43.144;24.684;2023-07-29T06:05:23;98604.03;;;24.35;49.27
22753;BME280;11543;43.144;24.684;2023-07-29T06:07:48;98620.22;;;24.53;48.76
22753;BME280;11543;43.144;24.684;2023-07-29T06:10:15;98614.31;;;24.61;48.96
22753;BME280;11543;43.144;24.684;2023-07-29T06:12:44;98620.59;;;24.78;48.82
22753;BME280;11543;43.144;24.684;2023-07-29T06:15:10;98609.25;;;24.92;48.47
22753;BME280;11543;43.144;24.684;2023-07-29T06:17:37;98596.94;;;24.94;48.07
22753;BME280;11543;43.144;24.684;2023-07-29T06:20:03;98596.88;;;25.06;47.86
22753;BME280;11543;43.144;24.684;2023-07-29T06:22:29;98586.53;;;25.13;47.83
22753;BME280;11543;43.144;24.684;2023-07-29T06:24:54;98589.22;;;25.30;47.04
22753;BME280;11543;43.144;24.684;2023-07-29T06:27:19;98590.28;;;25.51;46.88
22753;BME280;11543;43.144;24.684;2023-07-29T06:29:45;98597.13;;;25.70;46.66
22753;BME280;11543;43.144;24.684;2023-07-29T06:32:10;98604.44;;;25.86;46.13
22753;BME280;11543;43.144;24.684;2023-07-29T06:34:36;98589.59;;;25.87;46.08
22753;BME280;11543;43.144;24.684;2023-07-29T06:37:02;98597.50;;;26.06;45.21
22753;BME280;11543;43.144;24.684;2023-07-29T06:39:27;98593.75;;;26.17;45.13
22753;BME280;11543;43.144;24.684;2023-07-29T06:41:52;98605.50;;;26.39;44.77
22753;BME280;11543;43.144;24.684;2023-07-29T06:44:18;98599.31;;;26.59;43.93
22753;BME280;11543;43.144;24.684;2023-07-29T06:46:43;98597.44;;;26.70;43.70
22753;BME280;11543;43.144;24.684;2023-07-29T06:49:09;98590.34;;;26.79;43.47
22753;BME280;11543;43.144;24.684;2023-07-29T06:51:34;98605.94;;;27.00;42.70
22753;BME280;11543;43.144;24.684;2023-07-29T06:54:03;98608.25;;;27.23;42.35
22753;BME280;11543;43.144;24.684;2023-07-29T06:56:29;98603.63;;;27.34;41.77
22753;BME280;11543;43.144;24.684;2023-07-29T06:58:55;98600.63;;;27.46;40.56
22753;BME280;11543;43.144;24.684;2023-07-29T07:01:20;98605.13;;;27.72;38.73
22753;BME280;11543;43.144;24.684;2023-07-29T07:03:46;98615.13;;;27.88;38.40
22753;BME280;11543;43.144;24.684;2023-07-29T07:06:11;98616.25;;;28.13;37.62
22753;BME280;11543;43.144;24.684;2023-07-29T07:08:37;98608.56;;;28.25;37.40
22753;BME280;11543;43.144;24.684;2023-07-29T07:11:02;98600.56;;;28.34;37.62
22753;BME280;11543;43.144;24.684;2023-07-29T07:13:28;98611.88;;;28.47;37.68
22753;BME280;11543;43.144;24.684;2023-07-29T07:15:56;98608.56;;;28.55;37.25
22753;BME280;11543;43.144;24.684;2023-07-29T07:18:22;98609.69;;;28.65;36.73
22753;BME280;11543;43.144;24.684;2023-07-29T07:20:51;98603.56;;;28.83;35.35
22753;BME280;11543;43.144;24.684;2023-07-29T07:23:18;98578.72;;;28.93;34.37
22753;BME280;11543;43.144;24.684;2023-07-29T07:25:43;98587.22;;;29.07;34.11
22753;BME280;11543;43.144;24.684;2023-07-29T07:28:09;98596.81;;;29.30;33.10
22753;BME280;11543;43.144;24.684;2023-07-29T07:30:35;98588.50;;;29.35;33.43
22753;BME280;11543;43.144;24.684;2023-07-29T07:33:00;98587.94;;;29.43;33.09
22753;BME280;11543;43.144;24.684;2023-07-29T07:35:26;98586.25;;;29.42;33.35
22753;BME280;11543;43.144;24.684;2023-07-29T07:37:52;98574.66;;;29.40;33.82
22753;BME280;11543;43.144;24.684;2023-07-29T07:40:18;98585.72;;;29.50;33.51
22753;BME280;11543;43.144;24.684;2023-07-29T07:42:43;98574.84;;;29.64;32.67
22753;BME280;11543;43.144;24.684;2023-07-29T07:45:09;98587.72;;;29.84;32.82
22753;BME280;11543;43.144;24.684;2023-07-29T07:47:34;98582.69;;;29.91;32.67
22753;BME280;11543;43.144;24.684;2023-07-29T07:50:00;98579.84;;;30.06;32.48
22753;BME280;11543;43.144;24.684;2023-07-29T07:52:25;98573.19;;;30.07;32.28
22753;BME280;11543;43.144;24.684;2023-07-29T07:54:54;98587.53;;;30.14;32.42
22753;BME280;11543;43.144;24.684;2023-07-29T07:57:21;98591.03;;;30.25;32.31
22753;BME280;11543;43.144;24.684;2023-07-29T07:59:47;98589.28;;;30.34;32.03
22753;BME280;11543;43.144;24.684;2023-07-29T08:02:12;98584.56;;;30.39;32.24
22753;BME280;11543;43.144;24.684;2023-07-29T08:04:38;98572.88;;;30.48;31.45
22753;BME280;11543;43.144;24.684;2023-07-29T08:07:03;98583.28;;;30.61;32.23
22753;BME280;11543;43.144;24.684;2023-07-29T08:09:29;98572.59;;;30.78;32.50
22753;BME280;11543;43.144;24.684;2023-07-29T08:11:55;98565.75;;;30.94;31.50
22753;BME280;11543;43.144;24.684;2023-07-29T08:14:20;98564.97;;;31.13;31.69
22753;BME280;11543;43.144;24.684;2023-07-29T08:16:46;98551.88;;;31.23;30.44
22753;BME280;11543;43.144;24.684;2023-07-29T08:19:11;98562.09;;;31.47;30.67
22753;BME280;11543;43.144;24.684;2023-07-29T08:21:37;98563.34;;;31.78;30.81
22753;BME280;11543;43.144;24.684;2023-07-29T08:24:02;98550.66;;;31.91;30.32
22753;BME280;11543;43.144;24.684;2023-07-29T08:26:29;98555.16;;;32.24;30.03
22753;BME280;11543;43.144;24.684;2023-07-29T08:28:54;98566.16;;;32.62;29.22
22753;BME280;11543;43.144;24.684;2023-07-29T08:31:20;98571.56;;;32.86;29.04
22753;BME280;11543;43.144;24.684;2023-07-29T08:33:45;98553.91;;;32.96;28.72
22753;BME280;11543;43.144;24.684;2023-07-29T08:36:11;98563.16;;;33.18;28.33
22753;BME280;11543;43.144;24.684;2023-07-29T08:38:36;98552.03;;;33.32;27.81
22753;BME280;11543;43.144;24.684;2023-07-29T08:41:36;98575.25;;;33.64;27.20
22753;BME280;11543;43.144;24.684;2023-07-29T08:44:07;98566.50;;;33.70;27.69
22753;BME280;11543;43.144;24.684;2023-07-29T08:46:34;98567.81;;;33.73;27.17
22753;BME280;11543;43.144;24.684;2023-07-29T08:49:00;98556.25;;;33.79;27.07
22753;BME280;11543;43.144;24.684;2023-07-29T08:51:27;98552.09;;;34.04;25.90
22753;BME280;11543;43.144;24.684;2023-07-29T08:53:53;98546.66;;;34.22;26.63
22753;BME280;11543;43.144;24.684;2023-07-29T08:56:19;98536.03;;;34.46;26.12
22753;BME280;11543;43.144;24.684;2023-07-29T08:58:45;98552.06;;;34.71;25.89
22753;BME280;11543;43.144;24.684;2023-07-29T09:01:11;98535.59;;;34.84;25.08
22753;BME280;11543;43.144;24.684;2023-07-29T09:03:40;98540.94;;;34.71;25.14
22753;BME280;11543;43.144;24.684;2023-07-29T09:06:07;98525.47;;;34.88;25.55
22753;BME280;11543;43.144;24.684;2023-07-29T09:08:34;98548.03;;;35.17;25.36
22753;BME280;11543;43.144;24.684;2023-07-29T09:11:00;98545.91;;;35.31;24.44
22753;BME280;11543;43.144;24.684;2023-07-29T09:13:26;98529.66;;;35.25;24.70
22753;BME280;11543;43.144;24.684;2023-07-29T09:15:57;98521.28;;;35.25;24.74
22753;BME280;11543;43.144;24.684;2023-07-29T09:18:23;98542.19;;;35.44;24.80
22753;BME280;11543;43.144;24.684;2023-07-29T09:20:50;98531.34;;;35.34;24.78
22753;BME280;11543;43.144;24.684;2023-07-29T09:23:17;98536.13;;;35.42;24.81
22753;BME280;11543;43.144;24.684;2023-07-29T09:25:46;98529.09;;;35.54;24.84
22753;BME280;11543;43.144;24.684;2023-07-29T09:28:14;98540.44;;;35.66;24.80
22753;BME280;11543;43.144;24.684;2023-07-29T09:30:41;98539.47;;;35.79;25.01
22753;BME280;11543;43.144;24.684;2023-07-29T09:33:09;98542.28;;;35.96;23.92
22753;BME280;11543;43.144;24.684;2023-07-29T09:35:35;98518.47;;;35.90;23.85
22753;BME280;11543;43.144;24.684;2023-07-29T09:38:02;98539.16;;;36.06;24.15
22753;BME280;11543;43.144;24.684;2023-07-29T09:40:34;98540.78;;;36.16;24.05
22753;BME280;11543;43.144;24.684;2023-07-29T09:43:04;98530.91;;;36.27;23.72
22753;BME280;11543;43.144;24.684;2023-07-29T09:45:30;98528.81;;;36.42;23.02
22753;BME280;11543;43.144;24.684;2023-07-29T09:47:58;98521.06;;;36.47;22.73
22753;BME280;11543;43.144;24.684;2023-07-29T09:50:27;98534.53;;;36.45;23.12
22753;BME280;11543;43.144;24.684;2023-07-29T09:52:54;98518.44;;;36.42;22.93
22753;BME280;11543;43.144;24.684;2023-07-29T09:55:21;98510.56;;;36.44;23.08
22753;BME280;11543;43.144;24.684;2023-07-29T09:57:53;98523.31;;;36.62;23.66
22753;BME280;11543;43.144;24.684;2023-07-29T10:00:19;98516.19;;;36.82;23.80
22753;BME280;11543;43.144;24.684;2023-07-29T10:02:45;98493.28;;;36.89;23.54
22753;BME280;11543;43.144;24.684;2023-07-29T10:05:12;98502.66;;;37.22;22.84
22753;BME280;11543;43.144;24.684;2023-07-29T10:07:39;98489.63;;;37.35;22.82
22753;BME280;11543;43.144;24.684;2023-07-29T10:10:06;98505.88;;;37.62;22.79
22753;BME280;11543;43.144;24.684;2023-07-29T10:12:34;98505.63;;;37.76;22.50
22753;BME280;11543;43.144;24.684;2023-07-29T10:15:01;98493.06;;;37.82;22.59
22753;BME280;11543;43.144;24.684;2023-07-29T10:17:28;98484.84;;;37.98;23.07
22753;BME280;11543;43.144;24.684;2023-07-29T10:19:55;98492.28;;;38.15;22.09
22753;BME280;11543;43.144;24.684;2023-07-29T10:22:25;98488.38;;;38.28;21.96
22753;BME280;11543;43.144;24.684;2023-07-29T10:24:56;98485.59;;;38.40;22.39
22753;BME280;11543;43.144;24.684;2023-07-29T10:27:25;98495.94;;;38.61;22.07
22753;BME280;11543;43.144;24.684;2023-07-29T10:29:55;98484.72;;;38.61;20.58
22753;BME280;11543;43.144;24.684;2023-07-29T10:32:25;98498.53;;;38.78;20.92
22753;BME280;11543;43.144;24.684;2023-07-29T10:34:50;98496.06;;;38.88;20.85
22753;BME280;11543;43.144;24.684;2023-07-29T10:37:16;98470.22;;;38.95;20.87
22753;BME280;11543;43.144;24.684;2023-07-29T10:39:53;98482.19;;;39.16;21.22
22753;BME280;11543;43.144;24.684;2023-07-29T10:42:19;98459.06;;;39.07;21.77
22753;BME280;11543;43.144;24.684;2023-07-29T10:44:49;98458.81;;;39.25;21.17
22753;BME280;11543;43.144;24.684;2023-07-29T10:47:16;98471.16;;;39.48;21.13
22753;BME280;11543;43.144;24.684;2023-07-29T10:49:42;98459.81;;;39.57;20.81
22753;BME280;11543;43.144;24.684;2023-07-29T10:52:08;98465.97;;;39.62;20.53
22753;BME280;11543;43.144;24.684;2023-07-29T10:54:47;98439.38;;;39.72;20.41
22753;BME280;11543;43.144;24.684;2023-07-29T10:57:31;98466.34;;;40.01;19.96
22753;BME280;11543;43.144;24.684;2023-07-29T10:59:57;98464.09;;;40.06;19.76
22753;BME280;11543;43.144;24.684;2023-07-29T11:02:35;98457.81;;;39.97;19.72
22753;BME280;11543;43.144;24.684;2023-07-29T11:05:06;98433.16;;;39.78;19.98
22753;BME280;11543;43.144;24.684;2023-07-29T11:07:46;98442.03;;;39.93;19.82
22753;BME280;11543;43.144;24.684;2023-07-29T11:10:12;98445.69;;;40.09;19.86
22753;BME280;11543;43.144;24.684;2023-07-29T11:12:52;98436.19;;;40.29;19.49
22753;BME280;11543;43.144;24.684;2023-07-29T11:15:25;98434.06;;;40.38;20.03
22753;BME280;11543;43.144;24.684;2023-07-29T11:18:01;98456.09;;;40.52;19.49
22753;BME280;11543;43.144;24.684;2023-07-29T11:20:28;98440.31;;;40.63;19.55
22753;BME280;11543;43.144;24.684;2023-07-29T11:22:55;98451.34;;;40.84;19.22
22753;BME280;11543;43.144;24.684;2023-07-29T11:25:23;98441.88;;;40.92;19.03
22753;BME280;11543;43.144;24.684;2023-07-29T11:27:52;98432.44;;;41.00;18.75
22753;BME280;11543;43.144;24.684;2023-07-29T11:30:18;98433.50;;;41.12;18.89
22753;BME280;11543;43.144;24.684;2023-07-29T11:32:45;98424.75;;;41.17;18.45
22753;BME280;11543;43.144;24.684;2023-07-29T11:35:14;98429.66;;;41.20;18.77
22753;BME280;11543;43.144;24.684;2023-07-29T11:37:45;98411.41;;;41.14;18.89
22753;BME280;11543;43.144;24.684;2023-07-29T11:40:14;98398.59;;;41.32;18.26
22753;BME280;11543;43.144;24.684;2023-07-29T11:42:40;98413.41;;;41.48;18.31
22753;BME280;11543;43.144;24.684;2023-07-29T11:45:06;98422.75;;;41.52;18.44
22753;BME280;11543;43.144;24.684;2023-07-29T11:47:33;98406.16;;;41.47;18.37
22753;BME280;11543;43.144;24.684;2023-07-29T11:50:07;98414.28;;;41.52;18.39
22753;BME280;11543;43.144;24.684;2023-07-29T11:52:35;98403.03;;;41.52;18.01
22753;BME280;11543;43.144;24.684;2023-07-29T11:55:02;98396.13;;;41.65;18.20
22753;BME280;11543;43.144;24.684;2023-07-29T11:57:29;98386.47;;;41.66;18.53
22753;BME280;11543;43.144;24.684;2023-07-29T11:59:55;98404.63;;;41.88;18.36
22753;BME280;11543;43.144;24.684;2023-07-29T12:02:21;98395.03;;;41.93;18.03
22753;BME280;11543;43.144;24.684;2023-07-29T12:04:48;98383.75;;;41.93;17.48
22753;BME280;11543;43.144;24.684;2023-07-29T12:07:16;98410.94;;;42.24;18.01
22753;BME280;11543;43.144;24.684;2023-07-29T12:09:42;98381.06;;;42.19;17.92
22753;BME280;11543;43.144;24.684;2023-07-29T12:12:08;98386.50;;;42.32;17.47
22753;BME280;11543;43.144;24.684;2023-07-29T12:14:35;98385.31;;;42.33;17.49
22753;BME280;11543;43.144;24.684;2023-07-29T12:17:02;98375.84;;;42.21;17.14
22753;BME280;11543;43.144;24.684;2023-07-29T12:19:32;98372.13;;;42.40;17.00
22753;BME280;11543;43.144;24.684;2023-07-29T12:21:59;98363.91;;;42.51;16.84
22753;BME280;11543;43.144;24.684;2023-07-29T12:24:29;98374.66;;;42.68;16.46
22753;BME280;11543;43.144;24.684;2023-07-29T12:26:55;98385.19;;;42.71;16.46
22753;BME280;11543;43.144;24.684;2023-07-29T12:29:22;98376.94;;;42.59;16.89
22753;BME280;11543;43.144;24.684;2023-07-29T12:31:48;98380.84;;;42.51;16.82
22753;BME280;11543;43.144;24.684;2023-07-29T12:34:21;98381.13;;;42.46;16.64
22753;BME280;11543;43.144;24.684;2023-07-29T12:36:48;98370.00;;;42.34;17.03
22753;BME280;11543;43.144;24.684;2023-07-29T12:41:49;98375.78;;;42.41;16.91
22753;BME280;11543;43.144;24.684;2023-07-29T12:44:15;98369.25;;;42.37;16.95
22753;BME280;11543;43.144;24.684;2023-07-29T12:46:41;98362.00;;;42.36;17.56
22753;BME280;11543;43.144;24.684;2023-07-29T12:49:07;98386.53;;;42.54;16.69
22753;BME280;11543;43.144;24.684;2023-07-29T12:51:33;98374.13;;;42.59;16.41
22753;BME280;11543;43.144;24.684;2023-07-29T12:53:59;98370.09;;;42.60;16.43